Time;durP1;ratioP1;P1;durP2;ratioP2;P2;SDS_P1;SDS_P2;PMS_P1;PMS_P2;Temp;Humidity;BMP_temperature;BMP_pressure;BME280_temperature;BME280_humidity;BME280_pressure;Samples;Min_cycle;Max_cycle;Signal;HPM_P1;HPM_P2
2022/09/23 00:00:36;;;;;;;0.90;0.38;;;;;;;10.39;86.63;101283.63;4995943;28;20038;-84
2022/09/23 00:03:02;;;;;;;0.95;0.30;;;;;;;10.35;86.91;101284.81;5002624;28;20026;-85
2022/09/23 00:05:29;;;;;;;0.63;0.28;;;;;;;10.21;87.50;101286.72;5005381;28;20450;-86
2022/09/23 00:07:55;;;;;;;0.88;0.28;;;;;;;10.13;87.80;101283.88;5004803;28;20040;-84
2022/09/23 00:10:23;;;;;;;1.10;0.40;;;;;;;10.12;87.89;101284.81;5005050;28;20037;-84
2022/09/23 00:12:48;;;;;;;1.63;0.57;;;;;;;10.09;87.98;101285.06;5002943;28;20081;-84
2022/09/23 00:15:15;;;;;;;1.83;0.35;;;;;;;10.10;87.62;101278.06;5007619;28;20580;-85
2022/09/23 00:17:41;;;;;;;0.90;0.22;;;;;;;10.12;87.54;101271.81;5008585;28;20018;-84
2022/09/23 00:20:08;;;;;;;0.88;0.32;;;;;;;10.17;87.04;101280.06;5006469;28;20420;-84
2022/09/23 00:22:35;;;;;;;2.15;0.30;;;;;;;10.16;86.74;101265.41;4999240;28;20824;-85
2022/09/23 00:25:01;;;;;;;0.73;0.30;;;;;;;10.18;86.50;101271.31;5007281;28;20026;-84
2022/09/23 00:27:28;;;;;;;0.82;0.40;;;;;;;10.23;86.26;101264.00;5007936;28;20038;-88
2022/09/23 00:29:53;;;;;;;0.60;0.30;;;;;;;10.24;86.24;101257.84;5007693;28;20026;-84
2022/09/23 00:32:19;;;;;;;0.68;0.30;;;;;;;10.23;86.31;101257.97;5019833;28;20031;-86
2022/09/23 00:34:44;;;;;;;2.30;0.28;;;;;;;10.29;85.44;101260.06;5008109;28;20375;-85
2022/09/23 00:37:10;;;;;;;1.77;0.30;;;;;;;10.35;84.81;101261.38;5022001;28;20046;-85
2022/09/23 00:39:35;;;;;;;1.23;0.22;;;;;;;10.35;84.02;101253.56;5007088;28;20026;-86
2022/09/23 00:42:01;;;;;;;0.80;0.25;;;;;;;10.37;83.25;101249.03;5005732;28;20164;-84
2022/09/23 00:44:40;;;;;;;1.13;0.28;;;;;;;10.42;82.54;101252.06;5008654;28;20029;-84
2022/09/23 00:47:23;;;;;;;0.50;0.20;;;;;;;10.45;82.58;101257.03;5005958;28;20045;-83
2022/09/23 00:49:59;;;;;;;1.50;0.20;;;;;;;10.49;82.29;101250.63;5003983;28;20460;-85
2022/09/23 00:52:24;;;;;;;0.80;0.32;;;;;;;10.60;81.21;101246.19;5006887;28;20157;-85
2022/09/23 00:54:54;;;;;;;0.77;0.20;;;;;;;10.68;80.22;101248.19;5005684;28;20135;-87
2022/09/23 00:57:21;;;;;;;1.23;0.20;;;;;;;10.71;80.91;101247.09;5006780;28;20512;-86
2022/09/23 00:59:48;;;;;;;0.47;0.20;;;;;;;10.63;81.88;101240.75;5008453;28;20118;-85
2022/09/23 01:02:16;;;;;;;0.85;0.20;;;;;;;10.56;83.22;101249.19;5004435;28;20025;-86
2022/09/23 01:04:41;;;;;;;1.17;0.30;;;;;;;10.39;83.73;101242.75;5000697;28;20026;-85
2022/09/23 01:07:07;;;;;;;0.57;0.20;;;;;;;10.49;82.01;101242.81;5006876;28;20854;-85
2022/09/23 01:09:32;;;;;;;0.50;0.20;;;;;;;10.60;80.09;101243.59;5006010;28;20033;-85
2022/09/23 01:12:23;;;;;;;0.63;0.22;;;;;;;10.55;79.30;101245.75;5006222;28;20037;-86
2022/09/23 01:14:56;;;;;;;2.40;0.30;;;;;;;10.43;81.22;101248.53;5003824;28;20131;-86
2022/09/23 01:17:52;;;;;;;0.95;0.20;;;;;;;10.37;81.91;101249.88;5007076;28;20041;-84
2022/09/23 01:20:27;;;;;;;3.55;0.30;;;;;;;10.32;82.73;101243.38;5006674;28;20079;-84
2022/09/23 01:23:26;;;;;;;1.25;0.40;;;;;;;10.19;84.12;101236.53;4998772;28;20030;-84
2022/09/23 01:26:19;;;;;;;0.93;0.30;;;;;;;10.04;85.05;101237.72;5003774;28;20561;-85
2022/09/23 01:29:22;;;;;;;0.50;0.22;;;;;;;9.96;86.14;101237.50;5007375;28;20069;-85
2022/09/23 01:31:56;;;;;;;0.95;0.47;;;;;;;9.93;86.35;101245.56;5005619;28;20038;-84
2022/09/23 01:34:51;;;;;;;4.43;0.30;;;;;;;9.90;86.78;101238.84;4999191;28;20072;-84
2022/09/23 01:37:43;;;;;;;1.13;0.40;;;;;;;9.92;87.28;101233.53;4985863;28;20517;-86
2022/09/23 01:40:31;;;;;;;0.68;0.30;;;;;;;9.90;86.87;101238.03;5006300;28;20079;-85
2022/09/23 01:43:08;;;;;;;1.17;0.20;;;;;;;9.87;87.13;101235.66;4989145;28;20383;-86
2022/09/23 01:45:45;;;;;;;0.77;0.30;;;;;;;9.83;87.11;101235.06;5022303;28;20057;-86
2022/09/23 01:48:20;;;;;;;1.10;0.30;;;;;;;9.82;87.07;101227.38;5010783;28;20076;-84
2022/09/23 01:51:10;;;;;;;0.50;0.20;;;;;;;9.83;88.16;101218.63;5011049;28;20057;-85
2022/09/23 01:54:08;;;;;;;1.75;0.45;;;;;;;9.86;87.75;101214.00;5008927;28;20542;-84
2022/09/23 01:56:48;;;;;;;2.40;0.40;;;;;;;9.89;87.79;101220.75;5005781;28;20498;-85
2022/09/23 01:59:25;;;;;;;0.60;0.20;;;;;;;9.91;87.61;101211.03;5011827;28;20389;-86
2022/09/23 02:01:54;;;;;;;1.95;0.30;;;;;;;9.96;87.98;101219.28;5008762;28;20038;-84
2022/09/23 02:04:29;;;;;;;0.55;0.20;;;;;;;9.90;88.60;101217.19;5009348;28;20022;-85
2022/09/23 02:07:00;;;;;;;0.60;0.40;;;;;;;9.76;89.94;101222.66;5011107;28;20080;-84
2022/09/23 02:09:40;;;;;;;1.90;0.40;;;;;;;9.62;90.87;101221.13;5009753;28;20504;-85
2022/09/23 02:12:12;;;;;;;1.30;0.30;;;;;;;9.53;91.57;101217.47;5007675;28;20046;-86
2022/09/23 02:14:48;;;;;;;0.82;0.20;;;;;;;9.41;91.56;101218.44;5009748;28;20407;-85
2022/09/23 02:17:22;;;;;;;4.80;0.40;;;;;;;9.26;91.31;101212.66;5008815;28;20076;-84
2022/09/23 02:19:54;;;;;;;0.47;0.28;;;;;;;9.31;90.97;101213.13;5010224;28;20038;-85
2022/09/23 02:22:26;;;;;;;1.65;0.60;;;;;;;9.58;88.27;101210.13;5010060;28;20516;-84
2022/09/23 02:24:53;;;;;;;1.00;0.30;;;;;;;9.84;86.63;101209.88;5010593;28;20564;-84
2022/09/23 02:27:29;;;;;;;0.50;0.22;;;;;;;9.93;85.84;101204.75;5009133;28;20474;-84
2022/09/23 02:30:07;;;;;;;2.63;0.30;;;;;;;9.93;86.41;101203.91;5010317;28;20440;-84
2022/09/23 02:32:53;;;;;;;0.80;0.20;;;;;;;9.84;87.61;101208.09;5001524;28;20030;-84
2022/09/23 02:35:24;;;;;;;2.22;0.30;;;;;;;9.75;88.27;101210.59;5009277;28;20156;-84
2022/09/23 02:37:52;;;;;;;0.98;0.28;;;;;;;9.66;89.08;101212.13;5009952;28;20515;-84
2022/09/23 02:40:22;;;;;;;0.95;0.38;;;;;;;9.63;89.76;101210.59;5008834;28;20037;-85
2022/09/23 02:43:34;;;;;;;1.65;0.40;;;;;;;9.56;89.96;101217.22;5022487;28;20053;-84
2022/09/23 02:46:00;;;;;;;0.95;0.50;;;;;;;9.51;89.66;101202.94;5004274;28;20132;-84
2022/09/23 02:48:40;;;;;;;0.32;0.20;;;;;;;9.49;89.43;101204.81;5008750;28;20224;-85
2022/09/23 02:51:07;;;;;;;0.90;0.30;;;;;;;9.51;89.15;101206.34;5007494;28;20033;-84
2022/09/23 02:53:33;;;;;;;1.00;0.30;;;;;;;9.52;89.02;101197.59;5008383;28;20143;-83
2022/09/23 02:56:00;;;;;;;0.90;0.30;;;;;;;9.63;88.63;101197.59;5010106;28;20478;-85
2022/09/23 02:58:26;;;;;;;1.00;0.43;;;;;;;9.70;88.17;101197.94;5008151;28;20049;-86
2022/09/23 03:01:09;;;;;;;0.50;0.30;;;;;;;9.71;88.58;101198.78;5008716;28;20368;-86
2022/09/23 03:04:05;;;;;;;0.85;0.30;;;;;;;9.70;88.60;101197.13;5008374;28;20083;-84
2022/09/23 03:06:45;;;;;;;0.90;0.30;;;;;;;9.76;88.42;101196.63;5007406;28;20022;-85
2022/09/23 03:09:17;;;;;;;0.47;0.20;;;;;;;9.71;88.72;101199.59;4993779;28;20576;-84
2022/09/23 03:11:49;;;;;;;1.38;0.30;;;;;;;9.65;88.83;101195.69;5010144;28;20022;-85
2022/09/23 03:14:43;;;;;;;2.45;0.40;;;;;;;9.63;89.02;101192.41;5009373;28;20034;-84
2022/09/23 03:17:36;;;;;;;1.73;0.35;;;;;;;9.63;89.04;101192.41;5006524;28;20512;-85
2022/09/23 03:20:32;;;;;;;1.38;0.28;;;;;;;9.70;88.89;101184.94;4991276;28;20133;-86
2022/09/23 03:23:02;;;;;;;1.73;0.45;;;;;;;9.78;88.38;101184.34;5006410;28;20033;-85
2022/09/23 03:25:33;;;;;;;0.93;0.40;;;;;;;9.83;87.92;101177.00;5009311;28;20501;-85
2022/09/23 03:28:00;;;;;;;2.83;0.40;;;;;;;9.86;87.30;101187.97;5007029;28;20029;-83
2022/09/23 03:30:26;;;;;;;1.83;0.50;;;;;;;9.88;87.31;101180.06;5007433;28;20026;-84
2022/09/23 03:32:53;;;;;;;1.13;0.30;;;;;;;9.88;87.28;101170.47;5006849;28;20056;-85
2022/09/23 03:35:22;;;;;;;0.77;0.30;;;;;;;9.91;87.02;101174.59;5007997;28;20371;-85
2022/09/23 03:37:52;;;;;;;1.30;0.40;;;;;;;9.91;86.76;101172.00;5023776;28;20038;-84
2022/09/23 03:40:22;;;;;;;0.50;0.30;;;;;;;9.92;87.17;101171.06;5008688;28;20030;-85
2022/09/23 03:42:52;;;;;;;0.88;0.30;;;;;;;9.90;87.17;101181.59;5007178;28;20030;-85
2022/09/23 03:45:22;;;;;;;0.95;0.30;;;;;;;9.91;87.30;101179.81;5006495;28;20397;-87
2022/09/23 03:47:47;;;;;;;1.05;0.30;;;;;;;9.90;87.60;101180.75;5008891;28;20037;-84
2022/09/23 03:50:16;;;;;;;3.78;0.40;;;;;;;9.89;87.24;101176.50;5009093;28;20630;-87
2022/09/23 03:52:42;;;;;;;2.20;0.20;;;;;;;9.89;87.47;101171.28;5019068;28;20026;-85
2022/09/23 03:55:08;;;;;;;0.98;0.35;;;;;;;9.88;87.56;101169.63;5034890;28;20026;-83
2022/09/23 03:57:34;;;;;;;1.05;0.40;;;;;;;9.90;87.36;101181.59;5031767;28;20076;-84
2022/09/23 04:00:00;;;;;;;0.90;0.30;;;;;;;9.91;87.26;101179.81;5018063;28;20037;-84
2022/09/23 04:02:25;;;;;;;2.50;0.20;;;;;;;9.88;86.96;101180.06;5014170;28;20044;-85
2022/09/23 04:04:51;;;;;;;1.48;0.38;;;;;;;9.89;87.36;101182.53;5012716;28;20597;-85
2022/09/23 04:07:16;;;;;;;0.80;0.40;;;;;;;9.87;87.27;101183.59;5006785;28;20068;-85
2022/09/23 04:12:17;;;;;;;1.10;0.30;;;;;;;9.85;87.06;101180.28;5131564;22;20065;-85
2022/09/23 04:14:43;;;;;;;1.60;0.30;;;;;;;9.83;87.32;101177.81;5029267;28;20530;-85
2022/09/23 04:17:10;;;;;;;2.65;0.40;;;;;;;9.84;87.07;101176.03;5029344;28;20034;-84
2022/09/23 04:19:36;;;;;;;0.50;0.20;;;;;;;9.80;87.13;101166.81;5029509;28;20025;-84
2022/09/23 04:22:02;;;;;;;2.97;0.60;;;;;;;9.79;87.28;101170.38;5030118;28;20512;-86
2022/09/23 04:24:27;;;;;;;1.50;0.30;;;;;;;9.84;86.64;101163.03;5027663;28;20021;-85
2022/09/23 04:26:55;;;;;;;0.75;0.30;;;;;;;9.91;85.98;101158.97;5028783;28;20342;-85
2022/09/23 04:29:22;;;;;;;0.50;0.25;;;;;;;10.03;84.91;101160.56;5028667;28;20021;-85
2022/09/23 04:31:47;;;;;;;0.77;0.22;;;;;;;10.10;84.34;101163.50;5028572;28;20053;-85
2022/09/23 04:34:14;;;;;;;1.10;0.43;;;;;;;10.09;83.94;101162.69;5027482;28;20426;-84
2022/09/23 04:36:40;;;;;;;0.80;0.30;;;;;;;10.09;84.15;101162.69;5028855;28;20025;-84
2022/09/23 04:39:07;;;;;;;1.05;0.30;;;;;;;10.05;84.52;101171.69;5027248;28;20064;-84
2022/09/23 04:41:32;;;;;;;2.75;0.30;;;;;;;10.01;84.84;101162.47;5027329;28;20427;-84
2022/09/23 04:43:58;;;;;;;0.75;0.30;;;;;;;9.94;85.20;101164.75;5026999;28;20041;-86
2022/09/23 04:46:23;;;;;;;6.07;0.30;;;;;;;9.87;85.79;101168.00;5028135;28;20081;-85
2022/09/23 04:48:49;;;;;;;1.30;0.30;;;;;;;9.73;86.26;101171.69;5028419;28;20053;-85
2022/09/23 04:51:20;;;;;;;0.70;0.30;;;;;;;9.66;86.98;101165.31;5028330;28;20029;-86
2022/09/23 04:53:47;;;;;;;0.77;0.30;;;;;;;9.63;87.45;101176.78;5026844;28;20033;-85
2022/09/23 04:56:17;;;;;;;1.00;0.38;;;;;;;9.61;87.34;101180.44;5028401;28;20087;-84
2022/09/23 04:58:44;;;;;;;1.65;0.40;;;;;;;9.56;87.96;101166.97;5028352;28;20025;-83
2022/09/23 05:01:27;;;;;;;0.75;0.30;;;;;;;9.49;88.62;101184.00;5027075;28;20128;-84
2022/09/23 05:04:00;;;;;;;0.55;0.30;;;;;;;9.42;89.23;101181.09;5027081;28;20144;-86
2022/09/23 05:06:25;;;;;;;1.73;0.47;;;;;;;9.41;89.07;101184.63;5023282;28;20040;-84
2022/09/23 05:08:55;;;;;;;3.38;0.50;;;;;;;9.38;89.38;101182.28;5028268;28;20029;-84
2022/09/23 05:11:22;;;;;;;1.02;0.40;;;;;;;9.42;88.96;101188.06;5027910;28;20095;-84
2022/09/23 05:13:50;;;;;;;1.48;0.60;;;;;;;9.40;89.02;101192.56;5028225;28;20029;-84
2022/09/23 05:16:17;;;;;;;1.73;0.60;;;;;;;9.40;89.13;101185.59;5026433;28;20032;-85
2022/09/23 05:18:44;;;;;;;3.67;0.98;;;;;;;9.38;89.58;101187.47;5028418;28;20033;-85
2022/09/23 05:21:11;;;;;;;1.98;0.75;;;;;;;9.35;89.70;101187.72;5028185;28;20048;-86
2022/09/23 05:23:37;;;;;;;4.32;0.85;;;;;;;9.33;90.12;101189.59;5027890;28;20032;-84
2022/09/23 05:26:06;;;;;;;3.08;0.60;;;;;;;9.36;89.85;101198.94;5025159;28;20033;-85
2022/09/23 05:28:32;;;;;;;1.88;0.60;;;;;;;9.36;90.10;101193.75;5027113;28;20033;-84
2022/09/23 05:31:05;;;;;;;1.13;0.63;;;;;;;9.38;89.70;101192.66;5027527;28;20029;-84
2022/09/23 05:33:32;;;;;;;1.25;0.50;;;;;;;9.46;89.13;101195.47;5027588;28;20042;-84
2022/09/23 05:35:57;;;;;;;2.58;0.70;;;;;;;9.52;88.99;101189.81;5027730;28;20036;-84
2022/09/23 05:38:24;;;;;;;1.92;0.68;;;;;;;9.57;88.68;101189.44;5027247;28;20025;-85
2022/09/23 05:40:59;;;;;;;1.73;0.70;;;;;;;9.61;88.76;101193.47;5026237;28;20566;-86
2022/09/23 05:43:25;;;;;;;2.03;0.40;;;;;;;9.63;88.24;101195.00;5031141;28;20342;-84
2022/09/23 05:45:51;;;;;;;1.77;0.38;;;;;;;9.71;87.71;101189.19;5028392;28;20044;-87
2022/09/23 05:48:17;;;;;;;5.50;0.65;;;;;;;9.77;87.48;101182.69;5027320;28;20029;-85
2022/09/23 05:50:50;;;;;;;2.55;0.40;;;;;;;9.72;87.76;101185.63;5028085;28;20040;-87
2022/09/23 05:53:17;;;;;;;1.15;0.30;;;;;;;9.67;88.20;101182.56;5027926;28;20036;-85
2022/09/23 05:55:43;;;;;;;1.05;0.40;;;;;;;9.73;88.07;101176.06;5026102;28;20026;-84
2022/09/23 05:58:09;;;;;;;0.50;0.20;;;;;;;9.82;87.21;101173.56;5026795;28;20397;-84
2022/09/23 06:00:34;;;;;;;2.47;0.38;;;;;;;9.93;87.03;101172.66;5022612;28;20042;-85
2022/09/23 06:02:59;;;;;;;1.90;0.35;;;;;;;9.91;87.09;101179.81;5024595;28;20026;-86
2022/09/23 06:05:25;;;;;;;0.70;0.30;;;;;;;9.91;87.35;101177.22;5026644;28;20045;-83
2022/09/23 06:07:50;;;;;;;2.38;0.50;;;;;;;9.92;87.11;101166.63;5029701;22;20168;-67
2022/09/23 06:10:16;;;;;;;2.80;0.47;;;;;;;10.01;87.25;101164.25;5026496;28;20105;-67
2022/09/23 06:12:43;;;;;;;2.05;0.40;;;;;;;10.07;87.32;101169.78;5028612;28;20064;-69
2022/09/23 06:15:10;;;;;;;1.63;0.77;;;;;;;10.09;87.39;101175.69;5037638;28;20068;-68
2022/09/23 06:17:36;;;;;;;1.33;0.35;;;;;;;10.12;87.53;101177.22;5023952;28;20404;-67
2022/09/23 06:20:02;;;;;;;2.45;0.38;;;;;;;10.06;87.80;101173.34;5020690;28;20022;-66
2022/09/23 06:22:27;;;;;;;1.90;0.43;;;;;;;10.09;87.84;101173.09;5025215;28;20234;-68
2022/09/23 06:24:52;;;;;;;1.88;0.30;;;;;;;10.20;87.55;101182.69;5024854;28;20037;-68
2022/09/23 06:27:18;;;;;;;3.72;0.30;;;;;;;10.35;86.80;101180.63;5025901;28;20496;-68
2022/09/23 06:29:43;;;;;;;2.92;0.35;;;;;;;10.49;86.81;101180.28;5038513;28;20100;-68
2022/09/23 06:32:09;;;;;;;1.30;0.30;;;;;;;10.61;85.81;101177.50;5049437;28;20438;-68
2022/09/23 06:34:34;;;;;;;1.08;0.50;;;;;;;10.79;85.45;101182.13;5033331;28;20033;-68
2022/09/23 06:37:00;;;;;;;3.40;0.32;;;;;;;10.89;84.89;101183.81;5030781;28;20037;-67
2022/09/23 06:39:25;;;;;;;1.52;0.40;;;;;;;11.01;84.98;101187.19;5030591;28;20485;-68
2022/09/23 06:41:51;;;;;;;2.83;0.30;;;;;;;11.06;84.71;101184.19;5030503;28;20037;-68
2022/09/23 06:44:16;;;;;;;1.23;0.35;;;;;;;11.11;84.44;101187.22;5030777;28;20029;-68
2022/09/23 06:46:42;;;;;;;1.63;0.30;;;;;;;11.22;84.04;101184.53;5030346;28;20095;-68
2022/09/23 06:49:08;;;;;;;2.88;0.30;;;;;;;11.26;83.08;101185.94;5025691;28;20670;-67
2022/09/23 06:51:34;;;;;;;3.35;0.40;;;;;;;11.36;82.54;101189.38;5028357;28;20041;-68
2022/09/23 06:53:59;;;;;;;0.93;0.30;;;;;;;11.42;82.21;101185.41;5019754;28;20037;-67
2022/09/23 06:56:25;;;;;;;2.88;0.30;;;;;;;11.50;82.25;101188.19;5030344;28;20049;-69
2022/09/23 06:58:51;;;;;;;1.42;0.30;;;;;;;11.59;81.59;101190.00;5030376;28;20350;-68
2022/09/23 07:01:18;;;;;;;2.20;0.30;;;;;;;11.72;80.18;101190.59;5028826;28;20033;-67
2022/09/23 07:03:46;;;;;;;0.60;0.30;;;;;;;11.75;80.61;101187.72;5030179;28;20587;-68
2022/09/23 07:06:11;;;;;;;1.85;0.30;;;;;;;11.83;79.93;101184.44;5028643;28;20056;-68
2022/09/23 07:08:37;;;;;;;1.92;0.32;;;;;;;11.91;79.72;101188.03;5028976;28;20037;-67
2022/09/23 07:11:05;;;;;;;1.95;0.30;;;;;;;11.98;79.82;101182.28;5026951;28;20030;-68
2022/09/23 07:13:35;;;;;;;0.60;0.20;;;;;;;12.05;79.14;101192.03;5027351;28;20022;-67
2022/09/23 07:16:01;;;;;;;2.47;0.40;;;;;;;12.10;78.71;101187.25;5028176;28;20503;-67
2022/09/23 07:18:30;;;;;;;0.60;0.30;;;;;;;12.09;78.90;101190.00;5027133;28;20033;-68
2022/09/23 07:20:56;;;;;;;1.33;0.20;;;;;;;12.11;78.05;101183.66;5028156;28;20083;-67
2022/09/23 07:23:23;;;;;;;1.33;0.25;;;;;;;12.16;78.51;101191.91;5020638;28;20079;-68
2022/09/23 07:25:50;;;;;;;1.48;0.40;;;;;;;12.29;78.56;101189.00;5026676;28;20079;-68
2022/09/23 07:28:17;;;;;;;2.25;0.20;;;;;;;12.44;77.76;101189.41;5029888;28;20029;-69
2022/09/23 07:30:44;;;;;;;2.97;0.32;;;;;;;12.51;77.45;101187.91;5029808;28;20052;-67
2022/09/23 07:33:10;;;;;;;1.05;0.28;;;;;;;12.69;76.99;101196.69;5029725;28;20029;-67
2022/09/23 07:35:39;;;;;;;1.08;0.30;;;;;;;12.80;76.38;101193.91;5029166;28;20030;-67
2022/09/23 07:38:05;;;;;;;1.60;0.30;;;;;;;12.78;76.17;101193.22;5027216;28;20037;-68
2022/09/23 07:40:31;;;;;;;1.27;0.20;;;;;;;12.82;76.10;101194.56;5024588;28;20497;-70
2022/09/23 07:42:56;;;;;;;1.15;0.20;;;;;;;12.95;75.83;101189.88;5027896;28;20077;-66
2022/09/23 07:45:22;;;;;;;1.65;0.30;;;;;;;13.05;74.82;101194.25;5025882;28;20033;-66
2022/09/23 07:47:48;;;;;;;2.80;0.30;;;;;;;13.17;74.39;101190.53;5028664;28;20029;-67
2022/09/23 07:50:14;;;;;;;1.35;0.20;;;;;;;13.33;74.08;101195.13;5025602;28;20488;-68
2022/09/23 07:52:40;;;;;;;1.50;0.20;;;;;;;13.38;73.09;101195.53;5033635;28;20108;-67
2022/09/23 07:55:06;;;;;;;0.50;0.30;;;;;;;13.52;73.59;101198.50;5039457;28;20139;-66
2022/09/23 07:57:32;;;;;;;3.75;0.30;;;;;;;13.58;72.76;101202.31;5040680;28;20033;-66
2022/09/23 07:59:59;;;;;;;4.32;0.25;;;;;;;13.58;71.89;101199.69;5037136;28;20037;-67
2022/09/23 08:02:24;;;;;;;0.98;0.28;;;;;;;13.69;72.46;101203.91;5025155;28;20535;-67
2022/09/23 08:04:50;;;;;;;1.23;0.28;;;;;;;13.76;72.26;101197.91;5022055;28;20041;-68
2022/09/23 08:07:15;;;;;;;0.65;0.20;;;;;;;13.71;72.27;101202.78;5021693;28;20424;-65
2022/09/23 08:09:42;;;;;;;0.77;0.20;;;;;;;13.69;71.93;101190.81;5026641;28;20049;-64
2022/09/23 08:12:10;;;;;;;0.40;0.20;;;;;;;13.81;71.83;101200.09;5029228;28;20026;-64
2022/09/23 08:14:37;;;;;;;2.40;0.40;;;;;;;13.95;70.99;101197.81;5026642;28;20506;-64
2022/09/23 08:17:03;;;;;;;0.80;0.30;;;;;;;14.12;70.67;101196.19;5027132;28;20404;-66
2022/09/23 08:19:28;;;;;;;1.52;0.20;;;;;;;14.27;70.76;101199.06;5029126;28;20022;-67
2022/09/23 08:21:54;;;;;;;2.10;0.20;;;;;;;14.23;70.53;101197.72;5026392;28;20037;-66
2022/09/23 08:24:22;;;;;;;1.05;0.22;;;;;;;14.28;70.21;101198.91;5028453;28;20033;-67
2022/09/23 08:26:49;;;;;;;1.95;0.20;;;;;;;14.30;69.20;101201.38;5026478;28;20083;-67
2022/09/23 08:29:16;;;;;;;3.20;0.20;;;;;;;14.37;69.23;101199.00;5026329;28;20041;-68
2022/09/23 08:31:43;;;;;;;0.80;0.20;;;;;;;14.45;69.40;101197.28;5028381;28;20098;-68
2022/09/23 08:34:09;;;;;;;2.50;0.30;;;;;;;14.55;69.85;101184.94;5027691;28;20056;-67
2022/09/23 08:36:34;;;;;;;1.73;0.30;;;;;;;14.55;69.08;101184.94;5028641;28;20022;-67
2022/09/23 08:39:01;;;;;;;0.70;0.30;;;;;;;14.70;68.54;101193.03;5028755;28;20350;-67
2022/09/23 08:41:37;;;;;;;1.40;0.20;;;;;;;14.89;67.88;101184.97;5028731;28;20041;-67
2022/09/23 08:44:37;;;;;;;0.70;0.25;;;;;;;15.12;68.39;101187.09;5026821;28;20519;-67
2022/09/23 08:47:22;;;;;;;0.60;0.20;;;;;;;15.09;70.13;101180.34;5025204;28;20041;-67
2022/09/23 08:50:13;;;;;;;3.75;0.25;;;;;;;15.07;69.33;101181.47;5028483;28;20092;-67
2022/09/23 08:52:39;;;;;;;3.80;0.90;;;;;;;15.05;69.25;101186.06;5027944;28;20080;-67
2022/09/23 08:55:09;;;;;;;1.63;0.30;;;;;;;14.98;67.17;101187.66;5026155;28;20041;-67
2022/09/23 08:58:07;;;;;;;1.25;0.30;;;;;;;14.95;65.31;101178.28;5028420;28;20072;-67
2022/09/23 09:00:40;;;;;;;0.70;0.20;;;;;;;14.93;65.90;101182.88;5028430;28;20047;-66
2022/09/23 09:03:32;;;;;;;2.83;0.50;;;;;;;15.06;63.93;101174.56;5028254;28;20564;-67
2022/09/23 09:05:58;;;;;;;1.10;0.20;;;;;;;15.01;65.43;101169.78;5020105;28;20064;-67
2022/09/23 09:08:30;;;;;;;1.50;0.30;;;;;;;14.98;65.61;101174.53;5025857;28;20073;-68
2022/09/23 09:10:57;;;;;;;0.50;0.10;;;;;;;14.94;65.35;101168.78;5028258;28;20083;-68
2022/09/23 09:13:32;;;;;;;0.50;0.20;;;;;;;15.02;64.54;101168.81;5027456;28;20030;-65
2022/09/23 09:16:41;;;;;;;0.30;0.20;;;;;;;15.10;64.06;101165.41;5025773;28;20025;-67
2022/09/23 09:19:15;;;;;;;1.05;0.20;;;;;;;15.07;63.17;101149.97;4986664;28;20056;-68
2022/09/23 09:21:46;;;;;;;1.30;0.20;;;;;;;15.18;63.14;101160.19;5020034;28;20448;-68
2022/09/23 09:24:30;;;;;;;1.15;0.20;;;;;;;15.14;61.87;101154.41;5006940;28;20030;-68
2022/09/23 09:26:56;;;;;;;0.60;0.10;;;;;;;15.10;63.95;101155.75;5007983;28;20037;-67
2022/09/23 09:29:37;;;;;;;1.50;0.20;;;;;;;15.07;61.49;101152.59;5013270;28;20025;-68
2022/09/23 09:32:27;;;;;;;4.10;0.15;;;;;;;15.25;60.26;101148.06;5025589;28;20034;-67
2022/09/23 09:34:59;;;;;;;0.40;0.10;;;;;;;15.31;61.04;101147.44;5028073;28;20030;-67
2022/09/23 09:37:43;;;;;;;0.57;0.17;;;;;;;15.26;62.16;101152.34;5028010;28;20061;-66
2022/09/23 09:40:12;;;;;;;0.95;0.20;;;;;;;15.26;64.04;101149.72;5024977;28;20473;-67
2022/09/23 09:42:45;;;;;;;0.95;0.20;;;;;;;15.27;64.20;101151.38;5028277;28;20095;-67
2022/09/23 09:45:23;;;;;;;0.30;0.20;;;;;;;15.34;64.88;101147.13;5027075;28;20087;-67
2022/09/23 09:48:16;;;;;;;2.17;0.30;;;;;;;15.53;63.06;101143.41;5026568;28;20128;-67
2022/09/23 09:50:48;;;;;;;0.47;0.15;;;;;;;15.63;63.77;101140.66;5024516;28;20040;-68
2022/09/23 09:53:21;;;;;;;0.63;0.10;;;;;;;15.72;63.80;101147.56;5027845;28;20025;-68
2022/09/23 09:55:58;;;;;;;0.35;0.10;;;;;;;15.68;65.35;101147.06;5026346;28;20037;-67
2022/09/23 09:58:28;;;;;;;0.20;0.10;;;;;;;15.70;66.08;101146.91;5026534;28;20458;-67
2022/09/23 10:00:55;;;;;;;0.30;0.10;;;;;;;15.70;65.43;101137.22;5024106;28;20042;-67
2022/09/23 10:03:40;;;;;;;1.55;0.20;;;;;;;15.66;65.62;101138.53;5026596;28;20025;-68
2022/09/23 10:06:24;;;;;;;0.43;0.10;;;;;;;15.66;65.71;101137.72;5021865;28;20038;-67
2022/09/23 10:09:14;;;;;;;2.53;0.20;;;;;;;15.70;64.93;101125.91;5009392;28;20412;-68
2022/09/23 10:11:40;;;;;;;3.03;0.10;;;;;;;15.72;65.36;101135.25;5031060;28;20033;-68
2022/09/23 10:14:11;;;;;;;0.35;0.10;;;;;;;15.73;63.67;101133.47;5028825;28;20096;-68
2022/09/23 10:16:40;;;;;;;2.05;0.10;;;;;;;15.72;63.56;101134.44;5024015;28;20404;-67
2022/09/23 10:19:26;;;;;;;0.40;0.10;;;;;;;15.75;63.17;101134.13;5028504;28;20042;-67
2022/09/23 10:21:59;;;;;;;0.88;0.10;;;;;;;15.86;63.98;101132.00;5031014;28;20110;-68
2022/09/23 10:24:31;;;;;;;1.27;0.20;;;;;;;15.91;63.66;101134.16;5031342;28;20133;-67
2022/09/23 10:27:07;;;;;;;2.45;0.20;;;;;;;15.85;63.21;101133.00;5026724;28;20045;-67
2022/09/23 10:29:49;;;;;;;0.70;0.20;;;;;;;15.84;62.68;101135.78;5025950;28;20147;-68
2022/09/23 10:32:30;;;;;;;0.88;0.10;;;;;;;15.77;61.98;101138.22;5029355;28;20091;-67
2022/09/23 10:35:13;;;;;;;0.70;0.20;;;;;;;15.72;63.18;101134.44;5029568;28;20079;-68
2022/09/23 10:37:40;;;;;;;0.22;0.10;;;;;;;15.86;64.02;101134.63;5030983;28;20041;-68
2022/09/23 10:49:24;;;;;;;0.30;0.10;;;;;;;16.34;59.89;101119.03;5030923;28;20117;-67
2022/09/23 10:52:13;;;;;;;0.50;0.10;;;;;;;16.41;61.09;101109.50;5030822;28;20496;-68
2022/09/23 10:55:00;;;;;;;0.95;0.10;;;;;;;16.77;59.03;101109.91;5029719;28;20408;-68
2022/09/23 10:57:44;;;;;;;0.60;0.10;;;;;;;16.94;57.44;101102.81;5029715;28;20474;-68
2022/09/23 11:00:39;;;;;;;1.95;0.10;;;;;;;17.00;57.24;101102.94;5029540;28;20087;-67
2022/09/23 11:03:20;;;;;;;0.20;0.10;;;;;;;17.07;57.27;101114.41;5030660;28;20084;-68
2022/09/23 11:06:04;;;;;;;0.57;0.20;;;;;;;16.98;58.47;101112.00;5028210;28;20029;-68
2022/09/23 11:08:35;;;;;;;0.50;0.20;;;;;;;16.80;58.86;101104.31;5029412;28;20429;-68
2022/09/23 11:11:10;;;;;;;0.30;0.10;;;;;;;16.77;59.82;101099.41;5029664;28;20060;-68
2022/09/23 11:14:03;;;;;;;0.95;0.20;;;;;;;16.86;58.64;101091.31;5029043;28;20407;-68
2022/09/23 11:17:07;;;;;;;1.15;0.20;;;;;;;16.95;59.40;101083.38;5026702;28;20156;-66
2022/09/23 11:19:55;;;;;;;0.77;0.20;;;;;;;17.14;61.57;101090.84;4998099;28;20052;-68
2022/09/23 11:22:39;;;;;;;0.82;0.20;;;;;;;17.23;61.19;101092.44;5028800;28;20240;-68
2022/09/23 11:25:39;;;;;;;0.50;0.20;;;;;;;17.22;62.08;101086.38;5030157;28;20497;-68
2022/09/23 11:28:24;;;;;;;0.90;0.17;;;;;;;17.02;62.16;101092.22;5030146;28;20091;-68
2022/09/23 11:31:05;;;;;;;0.70;0.10;;;;;;;16.99;61.93;101082.06;5027103;28;20033;-68
2022/09/23 11:33:49;;;;;;;0.47;0.10;;;;;;;17.00;59.99;101084.53;5029137;28;20108;-68
2022/09/23 11:36:27;;;;;;;1.02;0.20;;;;;;;17.29;57.28;101075.97;5026899;28;20052;-67
2022/09/23 11:38:57;;;;;;;1.00;0.20;;;;;;;17.31;58.81;101081.06;5029627;28;20037;-67
2022/09/23 11:41:31;;;;;;;0.90;0.10;;;;;;;17.33;58.34;101074.63;5027368;28;20040;-68
2022/09/23 11:44:29;;;;;;;0.45;0.20;;;;;;;17.39;59.82;101066.03;5028027;28;20151;-67
2022/09/23 11:47:00;;;;;;;2.08;0.10;;;;;;;17.50;60.46;101070.88;5019525;28;20096;-67
2022/09/23 11:49:46;;;;;;;0.38;0.15;;;;;;;17.68;57.88;101068.00;5028537;28;20425;-68
2022/09/23 11:52:32;;;;;;;0.68;0.30;;;;;;;17.71;55.97;101065.00;5019800;28;20485;-67
2022/09/23 11:55:16;;;;;;;0.30;0.10;;;;;;;17.72;56.87;101061.38;5020177;28;20056;-68
2022/09/23 11:57:50;;;;;;;0.63;0.10;;;;;;;17.65;59.03;101064.84;5027257;28;20037;-67
2022/09/23 12:00:33;;;;;;;0.45;0.20;;;;;;;17.65;60.24;101052.53;5029027;28;20038;-68
2022/09/23 12:03:20;;;;;;;0.98;0.20;;;;;;;17.65;60.94;101062.22;5027960;28;20033;-67
2022/09/23 12:06:11;;;;;;;0.57;0.10;;;;;;;17.59;60.60;101059.28;5027893;28;20034;-67